Site contains unofficial IBTrACS data. Visit the IBTrACS Website to access archived data.

1896 NOT_NAMED (1896011S12069)


IBTrACS version v04r00. Visit IBTrACS website for data access.
Please direct all questions to the IBTrACS Q and A forum

Storm track - Intensity - Wind Radii - Intensity Data - Source Data - All data

Summary Information

Storm ID 1896011S12069
Start Jan 11 00Z
End Jan 17 00Z
ATCF IDs
Track status Best track data.

Storm track plot

Map of storm track

Intensity plots

No Intensity information for this storm


Radial wind information

No radial wind information for this storm


Position and Intensity Table

BASIN ISO_TIME_________ NATURE LAT LON
degrees north degrees east
SI 1896-01-11 00:00:00 TS -11.50 68.60
SI 03:00:00 TS -11.69 68.24
SI 06:00:00 TS -11.90 67.90
SI 09:00:00 TS -12.14 67.59
SI 12:00:00 TS -12.40 67.30
SI 15:00:00 TS -12.65 67.01
SI 18:00:00 TS -12.90 66.70
SI 21:00:00 TS -13.16 66.34
SI 1896-01-12 00:00:00 TS -13.40 66.00
SI 03:00:00 TS -13.61 65.73
SI 06:00:00 TS -13.80 65.50
SI 09:00:00 TS -13.95 65.25
SI 12:00:00 TS -14.10 65.00
SI 15:00:00 TS -14.29 64.75
SI 18:00:00 TS -14.50 64.50
SI 21:00:00 TS -14.70 64.23
SI 1896-01-13 00:00:00 TS -14.90 64.00
SI 03:00:00 TS -15.10 63.83
SI 06:00:00 TS -15.30 63.70
SI 09:00:00 TS -15.51 63.54
SI 12:00:00 TS -15.70 63.40
SI 15:00:00 TS -15.85 63.29
SI 18:00:00 TS -16.00 63.20
SI 21:00:00 TS -16.18 63.09
SI 1896-01-14 00:00:00 TS -16.40 63.00
SI 03:00:00 TS -16.68 62.98
SI 06:00:00 TS -17.00 63.00
SI 09:00:00 TS -17.30 63.04
SI 12:00:00 TS -17.60 63.10
SI 15:00:00 TS -17.91 63.19
SI 18:00:00 TS -18.20 63.30
SI 21:00:00 TS -18.43 63.41
SI 1896-01-15 00:00:00 TS -18.70 63.60
SI 03:00:00 TS -19.09 63.96
SI 06:00:00 TS -19.50 64.40
SI 09:00:00 TS -19.86 64.79
SI 12:00:00 TS -20.20 65.20
SI 15:00:00 TS -20.55 65.64
SI 18:00:00 TS -20.90 66.10
SI 21:00:00 TS -21.28 66.57
SI 1896-01-16 00:00:00 TS -21.60 67.00
SI 03:00:00 TS -21.78 67.33
SI 06:00:00 TS -21.90 67.60
SI 09:00:00 TS -22.05 67.86
SI 12:00:00 TS -22.20 68.10
SI 15:00:00 TS -22.34 68.36
SI 18:00:00 TS -22.50 68.60
SI 21:00:00 TS -22.69 68.81
SI 1896-01-17 00:00:00 TS -22.90 69.00

Source Information

Agency Information
USA
TOKYO
CMA
HKO
NEWDELHI
REUNION
BOM
NADI
WELLINGTON
DS824 s_hem.dat:90:NOT NAMED
TD9636
TD9635
NEUMANN
MLC

All available IBTrACS Data

SEASON BASIN SUBBASIN ISO_TIME_________ NATURE LAT LON DIST2LAND LANDFALL IFLAG USA SSHS DS824 LAT DS824 LON DS824 STAGE STORM SPEED STORM DIR
Year degrees north degrees east km km 1 degrees north degrees east kts degrees
1896 SI MM 1896-01-11 00:00:00 TS -11.50 68.60 1511 1471 _________O____ -1 -11.50 68.60 TC 8 242
1896 SI MM 03:00:00 TS -11.69 68.24 1463 1424 _________P____ -1 -11.69 68.24 TC 8 240
1896 SI MM 06:00:00 TS -11.90 67.90 1424 1385 _________O____ -1 -11.90 67.90 TC 8 235
1896 SI MM 09:00:00 TS -12.14 67.59 1385 1338 _________P____ -1 -12.14 67.59 TC 8 230
1896 SI MM 12:00:00 TS -12.40 67.30 1338 1299 _________O____ -1 -12.40 67.30 TC 8 228
1896 SI MM 15:00:00 TS -12.65 67.01 1299 1252 _________P____ -1 -12.65 67.01 TC 8 230
1896 SI MM 18:00:00 TS -12.90 66.70 1252 1213 _________O____ -1 -12.90 66.70 TC 8 232
1896 SI MM 21:00:00 TS -13.16 66.34 1197 1158 _________P____ -1 -13.16 66.34 TC 8 234
1896 SI MM 1896-01-12 00:00:00 TS -13.40 66.00 1158 1119 _________O____ -1 -13.40 66.00 TC 8 232
1896 SI MM 03:00:00 TS -13.61 65.73 1119 1088 _________P____ -1 -13.61 65.73 TC 6 231
1896 SI MM 06:00:00 TS -13.80 65.50 1088 1064 _________O____ -1 -13.80 65.50 TC 6 235
1896 SI MM 09:00:00 TS -13.95 65.25 1056 1025 _________P____ -1 -13.95 65.25 TC 6 238
1896 SI MM 12:00:00 TS -14.10 65.00 1025 994 _________O____ -1 -14.10 65.00 TC 6 235
1896 SI MM 15:00:00 TS -14.29 64.75 986 955 _________P____ -1 -14.29 64.75 TC 6 230
1896 SI MM 18:00:00 TS -14.50 64.50 955 916 _________O____ -1 -14.50 64.50 TC 6 231
1896 SI MM 21:00:00 TS -14.70 64.23 916 885 _________P____ -1 -14.70 64.23 TC 6 230
1896 SI MM 1896-01-13 00:00:00 TS -14.90 64.00 885 854 _________O____ -1 -14.90 64.00 TC 6 224
1896 SI MM 03:00:00 TS -15.10 63.83 854 832 _________P____ -1 -15.10 63.83 TC 5 216
1896 SI MM 06:00:00 TS -15.30 63.70 832 809 _________O____ -1 -15.30 63.70 TC 5 215
1896 SI MM 09:00:00 TS -15.51 63.54 801 778 _________P____ -1 -15.51 63.54 TC 5 216
1896 SI MM 12:00:00 TS -15.70 63.40 778 763 _________O____ -1 -15.70 63.40 TC 4 215
1896 SI MM 15:00:00 TS -15.85 63.29 763 740 _________P____ -1 -15.85 63.29 TC 4 213
1896 SI MM 18:00:00 TS -16.00 63.20 740 718 _________O____ -1 -16.00 63.20 TC 4 211
1896 SI MM 21:00:00 TS -16.18 63.09 718 696 _________P____ -1 -16.18 63.09 TC 4 206
1896 SI MM 1896-01-14 00:00:00 TS -16.40 63.00 696 676 _________O____ -1 -16.40 63.00 TC 5 192
1896 SI MM 03:00:00 TS -16.68 62.98 676 657 _________P____ -1 -16.68 62.98 TC 6 179
1896 SI MM 06:00:00 TS -17.00 63.00 657 640 _________O____ -1 -17.00 63.00 TC 6 174
1896 SI MM 09:00:00 TS -17.30 63.04 640 633 _________P____ -1 -17.30 63.04 TC 6 171
1896 SI MM 12:00:00 TS -17.60 63.10 633 623 _________O____ -1 -17.60 63.10 TC 6 167
1896 SI MM 15:00:00 TS -17.91 63.19 627 618 _________P____ -1 -17.91 63.19 TC 6 162
1896 SI MM 18:00:00 TS -18.20 63.30 623 618 _________O____ -1 -18.20 63.30 TC 6 158
1896 SI MM 21:00:00 TS -18.43 63.41 624 620 _________P____ -1 -18.43 63.41 TC 6 150
1896 SI MM 1896-01-15 00:00:00 TS -18.70 63.60 633 630 _________O____ -1 -18.70 63.60 TC 8 141
1896 SI MM 03:00:00 TS -19.09 63.96 662 660 _________P____ -1 -19.09 63.96 TC 11 137
1896 SI MM 06:00:00 TS -19.50 64.40 695 695 _________O____ -1 -19.50 64.40 TC 11 135
1896 SI MM 09:00:00 TS -19.86 64.79 732 732 _________P____ -1 -19.86 64.79 TC 10 133
1896 SI MM 12:00:00 TS -20.20 65.20 771 771 _________O____ -1 -20.20 65.20 TC 11 131
1896 SI MM 15:00:00 TS -20.55 65.64 813 813 _________P____ -1 -20.55 65.64 TC 11 130
1896 SI MM 18:00:00 TS -20.90 66.10 866 866 _________O____ -1 -20.90 66.10 TC 11 130
1896 SI MM 21:00:00 TS -21.28 66.57 921 921 _________P____ -1 -21.28 66.57 TC 11 130
1896 SI MM 1896-01-16 00:00:00 TS -21.60 67.00 966 966 _________O____ -1 -21.60 67.00 TC 9 125
1896 SI MM 03:00:00 TS -21.78 67.33 999 999 _________P____ -1 -21.78 67.33 TC 6 118
1896 SI MM 06:00:00 TS -21.90 67.60 1031 1031 _________O____ -1 -21.90 67.60 TC 6 119
1896 SI MM 09:00:00 TS -22.05 67.86 1064 1064 _________P____ -1 -22.05 67.86 TC 6 123
1896 SI MM 12:00:00 TS -22.20 68.10 1087 1087 _________O____ -1 -22.20 68.10 TC 5 122
1896 SI MM 15:00:00 TS -22.34 68.36 1120 1120 _________P____ -1 -22.34 68.36 TC 6 123
1896 SI MM 18:00:00 TS -22.50 68.60 1144 1144 _________O____ -1 -22.50 68.60 TC 5 130
1896 SI MM 21:00:00 TS -22.69 68.81 1168 1168 _________P____ -1 -22.69 68.81 TC 5 137
1896 SI MM 1896-01-17 00:00:00 TS -22.90 69.00 1193 _________O____ -1 -22.90 69.00 TC 5 140